Weather at Hilo International Airport

Public forecast

Using degrees Fahrenheit for public forecast. Weather courtesy of forecast.io.

Current aviation weather report (METAR) for Hilo International Airport

2024/06/14 13:07 (retrieved 9 minutes ago)

PHTO 141307Z AUTO 26005KT 9SM SCT014 BKN027 OVC036 22/21 A3004 RMK AO2 T02170211 TSNO

Aviation forecast (TAF) for Hilo International Airport

2024/06/14 12:22 (retrieved 54 minutes ago)

TAF PHTO 141120Z 1412/1512 VRB05KT P6SM -SHRA BKN025 OVC050 FM142200 11008KT P6SM VCSH SCT025 BKN035 BKN050 FM150400 21005KT P6SM SCT035 OVC050 FM150700 21005KT P6SM BKN035 OVC050